Ocoee 1 Observed Data For Previous 48 Hours

Caption
Day and Hour Reservoir Elevation (behind dam)* Tailwater Elevation (below dam)* Average Hourly Discharge*
9/21/2017 2 AM EDT 828.52 713.18 0
9/21/2017 3 AM EDT 828.53 713.17 0
9/21/2017 4 AM EDT 828.53 713.47 11
9/21/2017 5 AM EDT 828.51 714.07 593
9/21/2017 6 AM EDT 828.51 713.18 0
9/21/2017 7 AM EDT 828.51 713.17 0
9/21/2017 8 AM EDT 828.50 713.40 9
9/21/2017 9 AM EDT 828.49 714.07 590
9/21/2017 10 AM EDT 828.48 713.18 0
9/21/2017 11 AM EDT 828.48 713.17 0
9/21/2017 12 PM EDT 828.48 713.62 19
9/21/2017 1 PM EDT 828.42 716.13 1,359
9/21/2017 2 PM EDT 828.34 717.01 2,038
9/21/2017 3 PM EDT 828.31 717.01 2,042
9/21/2017 4 PM EDT 828.26 717.02 2,033
9/21/2017 5 PM EDT 828.22 717.00 2,038
9/21/2017 6 PM EDT 828.18 717.02 2,030
9/21/2017 7 PM EDT 828.14 717.02 2,039
9/21/2017 8 PM EDT 828.10 717.02 2,047
9/21/2017 9 PM EDT 828.09 716.00 1,360
9/21/2017 10 PM EDT 828.13 713.21 10
9/21/2017 11 PM EDT 828.18 713.17 0
9/22/2017 12 AM EDT 828.22 713.46 11
9/22/2017 1 AM EDT 828.24 714.07 594
9/22/2017 2 AM EDT 828.28 713.18 0
9/22/2017 3 AM EDT 828.30 713.17 0
9/22/2017 4 AM EDT 828.30 713.47 12
9/22/2017 5 AM EDT 828.28 714.07 591
9/22/2017 6 AM EDT 828.28 713.18 0
9/22/2017 7 AM EDT 828.28 713.17 0
9/22/2017 8 AM EDT 828.28 713.47 12
9/22/2017 9 AM EDT 828.25 714.07 591
9/22/2017 10 AM EDT 828.29 713.18 0
9/22/2017 11 AM EDT 828.32 713.17 0
9/22/2017 12 PM EDT 828.35 713.57 14
9/22/2017 1 PM EDT 828.36 715.98 1,354
9/22/2017 2 PM EDT 828.32 716.07 1,355
9/22/2017 3 PM EDT 828.29 717.00 2,034
9/22/2017 4 PM EDT 828.26 717.02 2,040
9/22/2017 5 PM EDT 828.22 717.02 2,044
9/22/2017 6 PM EDT 828.19 715.99 1,356
9/22/2017 7 PM EDT 828.23 713.38 17
9/22/2017 8 PM EDT 828.27 714.06 591
9/22/2017 9 PM EDT 828.32 713.18 0
9/22/2017 10 PM EDT 828.36 713.17 0
9/22/2017 11 PM EDT 828.37 713.46 12
9/23/2017 12 AM EDT 828.35 714.06 590
9/23/2017 1 AM EDT 828.35 713.18 0
9/23/2017 2 AM EDT 828.35 713.17 0

Elevations are in feet above sea level. Discharges are in cubic feet per second and are reported at the end of the hour.